createdAt,value
2017-12-25T00:00:03.780Z,968.30
2017-12-25T00:01:03.718Z,968.32
2017-12-25T00:02:03.651Z,968.30
2017-12-25T00:03:03.587Z,968.36
2017-12-25T00:04:03.518Z,968.35
2017-12-25T00:05:03.459Z,968.38
2017-12-25T00:06:03.388Z,968.37
2017-12-25T00:07:03.323Z,968.34
2017-12-25T00:08:03.258Z,968.32
2017-12-25T00:09:03.192Z,968.28
2017-12-25T00:10:03.126Z,968.33
2017-12-25T00:11:03.062Z,968.30
2017-12-25T00:12:02.999Z,968.26
2017-12-25T00:13:02.932Z,968.26
2017-12-25T00:14:02.866Z,968.27
2017-12-25T00:15:02.800Z,968.24
2017-12-25T00:16:02.734Z,968.22
2017-12-25T00:17:02.670Z,968.21
2017-12-25T00:18:02.607Z,968.22
2017-12-25T00:19:02.539Z,968.22
2017-12-25T00:20:02.475Z,968.26
2017-12-25T00:21:02.408Z,968.22
2017-12-25T00:22:02.345Z,968.21
2017-12-25T00:23:02.278Z,968.23
2017-12-25T00:24:02.213Z,968.20
2017-12-25T00:25:02.147Z,968.23
2017-12-25T00:26:02.083Z,968.23
2017-12-25T00:27:02.020Z,968.21
2017-12-25T00:28:01.954Z,968.23
2017-12-25T00:29:01.886Z,968.25
2017-12-25T00:30:01.822Z,968.24
2017-12-25T00:31:01.757Z,968.19
2017-12-25T00:32:01.691Z,968.23
2017-12-25T00:33:01.625Z,968.21
2017-12-25T00:34:01.559Z,968.15
2017-12-25T00:35:01.496Z,968.14
2017-12-25T00:36:01.432Z,968.14
2017-12-25T00:37:01.366Z,968.12
2017-12-25T00:38:01.314Z,968.12
2017-12-25T00:39:01.244Z,968.12
2017-12-25T00:40:01.169Z,968.11
2017-12-25T00:41:01.103Z,968.10
2017-12-25T00:42:01.037Z,968.01
2017-12-25T00:43:00.973Z,968.05
2017-12-25T00:44:00.908Z,968.03
2017-12-25T00:45:00.847Z,968.07
2017-12-25T00:46:00.779Z,968.08
2017-12-25T00:47:00.711Z,968.06
2017-12-25T00:48:00.645Z,968.06
2017-12-25T00:49:00.580Z,968.06
2017-12-25T00:50:00.516Z,968.02
2017-12-25T00:51:00.449Z,968.05
2017-12-25T00:52:00.385Z,968.03
2017-12-25T00:53:00.320Z,968.02
2017-12-25T00:54:00.254Z,968.03
2017-12-25T00:55:00.192Z,968.00
2017-12-25T00:56:00.124Z,968.05
2017-12-25T00:57:00.059Z,968.03
2017-12-25T00:57:59.991Z,967.99
2017-12-25T00:58:59.927Z,967.98
2017-12-25T00:59:59.872Z,968.02
2017-12-25T01:00:59.798Z,967.99
2017-12-25T01:01:59.737Z,968.00
2017-12-25T01:02:59.666Z,968.02
2017-12-25T01:03:59.603Z,968.03
2017-12-25T01:04:59.536Z,968.02
2017-12-25T01:05:59.470Z,968.03
2017-12-25T01:06:59.405Z,967.98
2017-12-25T01:07:59.342Z,967.99
2017-12-25T01:08:59.281Z,967.95
2017-12-25T01:09:59.209Z,967.96
2017-12-25T01:10:59.143Z,967.95
2017-12-25T01:11:59.080Z,967.91
2017-12-25T01:12:59.015Z,967.95
2017-12-25T01:13:58.951Z,967.94
2017-12-25T01:14:58.883Z,967.96
2017-12-25T01:15:58.818Z,967.92
2017-12-25T01:16:58.757Z,967.92
2017-12-25T01:17:58.688Z,967.89
2017-12-25T01:18:58.626Z,967.90
2017-12-25T01:19:58.559Z,967.91
2017-12-25T01:20:58.492Z,967.89
2017-12-25T01:21:58.429Z,967.93
2017-12-25T01:22:58.365Z,967.94
2017-12-25T01:23:58.296Z,967.90
2017-12-25T01:24:58.230Z,967.91
2017-12-25T01:25:58.166Z,967.92
2017-12-25T01:26:58.103Z,967.93
2017-12-25T01:27:58.036Z,967.94
2017-12-25T01:28:57.971Z,967.92
2017-12-25T01:29:57.905Z,967.91
2017-12-25T01:30:57.839Z,967.94
2017-12-25T01:31:57.775Z,967.92
2017-12-25T01:32:57.712Z,967.92
2017-12-25T01:33:57.643Z,967.88
2017-12-25T01:34:57.579Z,967.91
2017-12-25T01:35:57.514Z,967.92
2017-12-25T01:36:57.451Z,967.96
2017-12-25T01:37:57.382Z,967.92
2017-12-25T01:38:57.316Z,967.90
2017-12-25T01:39:57.251Z,967.91
2017-12-25T01:40:57.188Z,967.93
2017-12-25T01:41:57.116Z,967.93
2017-12-25T01:42:57.061Z,967.92
2017-12-25T01:43:56.992Z,967.91
2017-12-25T01:44:56.925Z,967.96
2017-12-25T01:45:56.858Z,967.93
2017-12-25T01:46:56.794Z,967.91
2017-12-25T01:47:56.730Z,967.93
2017-12-25T01:48:56.664Z,967.90
2017-12-25T01:49:56.597Z,967.93
2017-12-25T01:50:56.532Z,967.90
2017-12-25T01:51:56.466Z,967.88
2017-12-25T01:52:56.401Z,967.87
2017-12-25T01:53:56.334Z,967.85
2017-12-25T01:54:56.270Z,967.85
2017-12-25T01:55:56.206Z,967.88
2017-12-25T01:56:56.140Z,967.82
2017-12-25T01:57:56.077Z,967.83
2017-12-25T01:58:56.009Z,967.80
2017-12-25T01:59:55.943Z,967.76
2017-12-25T02:00:55.878Z,967.82
2017-12-25T02:01:55.810Z,967.77
2017-12-25T02:02:55.748Z,967.76
2017-12-25T02:03:55.682Z,967.77
2017-12-25T02:04:55.614Z,967.73
2017-12-25T02:05:55.549Z,967.71
2017-12-25T02:06:55.485Z,967.70
2017-12-25T02:07:55.417Z,967.71
2017-12-25T02:08:55.352Z,967.69
2017-12-25T02:09:55.287Z,967.67
2017-12-25T02:10:55.221Z,967.70
2017-12-25T02:11:55.156Z,967.64
2017-12-25T02:12:55.092Z,967.65
2017-12-25T02:13:55.024Z,967.63
2017-12-25T02:14:54.962Z,967.63
2017-12-25T02:15:54.897Z,967.63
2017-12-25T02:16:54.829Z,967.61
2017-12-25T02:17:54.765Z,967.63
2017-12-25T02:18:54.698Z,967.60
2017-12-25T02:19:54.636Z,967.58
2017-12-25T02:20:54.567Z,967.57
2017-12-25T02:21:54.504Z,967.51
2017-12-25T02:22:54.435Z,967.57
2017-12-25T02:23:54.372Z,967.51
2017-12-25T02:24:54.306Z,967.50
2017-12-25T02:25:54.239Z,967.50
2017-12-25T02:26:54.173Z,967.48
2017-12-25T02:27:54.109Z,967.48
2017-12-25T02:28:54.043Z,967.44
2017-12-25T02:29:53.979Z,967.46
2017-12-25T02:30:53.912Z,967.43
2017-12-25T02:31:53.843Z,967.42
2017-12-25T02:32:53.784Z,967.45
2017-12-25T02:33:53.716Z,967.45
2017-12-25T02:34:53.652Z,967.42
2017-12-25T02:35:53.586Z,967.47
2017-12-25T02:36:53.520Z,967.40
2017-12-25T02:37:53.458Z,967.45
2017-12-25T02:38:53.387Z,967.42
2017-12-25T02:39:53.325Z,967.41
2017-12-25T02:40:53.256Z,967.41
2017-12-25T02:41:53.191Z,967.41
2017-12-25T02:42:53.127Z,967.39
2017-12-25T02:43:53.061Z,967.36
2017-12-25T02:44:52.997Z,967.34
2017-12-25T02:45:52.929Z,967.37
2017-12-25T02:46:52.864Z,967.39
2017-12-25T02:47:52.800Z,967.38
2017-12-25T02:48:52.733Z,967.41
2017-12-25T02:49:52.665Z,967.37
2017-12-25T02:50:52.602Z,967.37
2017-12-25T02:51:52.535Z,967.35
2017-12-25T02:52:52.470Z,967.34
2017-12-25T02:53:52.407Z,967.33
2017-12-25T02:54:52.340Z,967.32
2017-12-25T02:55:52.274Z,967.29
2017-12-25T02:56:52.208Z,967.29
2017-12-25T02:57:52.143Z,967.26
2017-12-25T02:58:52.077Z,967.26
2017-12-25T02:59:52.011Z,967.26
2017-12-25T03:00:51.946Z,967.24
2017-12-25T03:01:51.880Z,967.24
2017-12-25T03:02:51.815Z,967.23
2017-12-25T03:03:51.749Z,967.21
2017-12-25T03:04:51.683Z,967.25
2017-12-25T03:05:51.617Z,967.24
2017-12-25T03:06:51.554Z,967.25
2017-12-25T03:07:51.487Z,967.27
2017-12-25T03:08:51.421Z,967.27
2017-12-25T03:09:51.355Z,967.27
2017-12-25T03:10:51.289Z,967.26
2017-12-25T03:11:51.224Z,967.23
2017-12-25T03:12:51.158Z,967.24
2017-12-25T03:13:51.092Z,967.27
2017-12-25T03:14:51.027Z,967.24
2017-12-25T03:15:50.963Z,967.22
2017-12-25T03:16:50.896Z,967.23
2017-12-25T03:17:50.834Z,967.20
2017-12-25T03:18:50.768Z,967.20
2017-12-25T03:19:50.699Z,967.16
2017-12-25T03:20:50.634Z,967.20
2017-12-25T03:21:50.567Z,967.13
2017-12-25T03:22:50.508Z,967.14
2017-12-25T03:23:50.436Z,967.15
2017-12-25T03:24:50.371Z,967.13
2017-12-25T03:25:50.303Z,967.11
2017-12-25T03:26:50.241Z,967.11
2017-12-25T03:27:50.173Z,967.13
2017-12-25T03:28:50.115Z,967.17
2017-12-25T03:29:50.043Z,967.11
2017-12-25T03:30:49.978Z,967.13
2017-12-25T03:31:49.911Z,967.11
2017-12-25T03:32:49.845Z,967.13
2017-12-25T03:33:49.780Z,967.11
2017-12-25T03:34:49.715Z,967.14
2017-12-25T03:35:49.657Z,967.10
2017-12-25T03:36:49.584Z,967.08
2017-12-25T03:37:49.518Z,967.12
2017-12-25T03:38:49.451Z,967.11
2017-12-25T03:39:49.387Z,967.12
2017-12-25T03:40:49.321Z,967.07
2017-12-25T03:41:49.255Z,967.07
2017-12-25T03:42:49.193Z,967.05
2017-12-25T03:43:49.124Z,967.05
2017-12-25T03:44:49.060Z,967.08
2017-12-25T03:45:48.995Z,967.04
2017-12-25T03:46:48.927Z,967.07
2017-12-25T03:47:48.861Z,967.06
2017-12-25T03:48:48.798Z,967.03
2017-12-25T03:49:48.732Z,966.99
2017-12-25T03:50:48.664Z,966.98
2017-12-25T03:51:48.599Z,967.00
2017-12-25T03:52:48.536Z,967.02
2017-12-25T03:53:48.471Z,966.98
2017-12-25T03:54:48.403Z,967.01
2017-12-25T03:55:48.339Z,966.98
2017-12-25T03:56:48.273Z,966.98
2017-12-25T03:57:48.206Z,966.97
2017-12-25T03:58:48.140Z,967.02
2017-12-25T03:59:48.076Z,966.93
2017-12-25T04:00:48.010Z,966.94
2017-12-25T04:01:47.944Z,966.93
2017-12-25T04:02:47.879Z,966.94
2017-12-25T04:03:47.812Z,966.93
2017-12-25T04:04:47.747Z,966.92
2017-12-25T04:05:47.683Z,966.91
2017-12-25T04:06:47.617Z,966.91
2017-12-25T04:07:47.551Z,966.89
2017-12-25T04:08:47.485Z,966.86
2017-12-25T04:09:47.420Z,966.89
2017-12-25T04:10:47.358Z,966.88
2017-12-25T04:11:47.289Z,966.85
2017-12-25T04:12:47.223Z,966.86
2017-12-25T04:13:47.157Z,966.82
2017-12-25T04:14:47.093Z,966.86
2017-12-25T04:15:47.028Z,966.83
2017-12-25T04:16:46.960Z,966.81
2017-12-25T04:17:46.894Z,966.79
2017-12-25T04:18:46.830Z,966.79
2017-12-25T04:19:46.764Z,966.78
2017-12-25T04:20:46.701Z,966.80
2017-12-25T04:21:46.633Z,966.78
2017-12-25T04:22:46.566Z,966.75
2017-12-25T04:23:46.501Z,966.75
2017-12-25T04:24:46.436Z,966.72
2017-12-25T04:25:46.373Z,966.73
2017-12-25T04:26:46.308Z,966.72
2017-12-25T04:27:46.239Z,966.71
2017-12-25T04:28:46.175Z,966.77
2017-12-25T04:29:46.115Z,966.75
2017-12-25T04:30:46.042Z,966.71
2017-12-25T04:31:45.976Z,966.74
2017-12-25T04:32:45.912Z,966.72
2017-12-25T04:33:45.843Z,966.76
2017-12-25T04:34:45.782Z,966.77
2017-12-25T04:35:45.713Z,966.76
2017-12-25T04:36:45.648Z,966.71
2017-12-25T04:37:45.582Z,966.76
2017-12-25T04:38:45.522Z,966.76
2017-12-25T04:39:45.450Z,966.75
2017-12-25T04:40:45.385Z,966.76
2017-12-25T04:41:45.318Z,966.72
2017-12-25T04:42:45.253Z,966.74
2017-12-25T04:43:45.187Z,966.75
2017-12-25T04:44:45.124Z,966.73
2017-12-25T04:45:45.057Z,966.76
2017-12-25T04:46:44.998Z,966.73
2017-12-25T04:47:44.927Z,966.69
2017-12-25T04:48:44.860Z,966.69
2017-12-25T04:49:44.796Z,966.67
2017-12-25T04:50:44.733Z,966.70
2017-12-25T04:51:44.664Z,966.68
2017-12-25T04:52:44.598Z,966.65
2017-12-25T04:53:44.530Z,966.64
2017-12-25T04:54:44.466Z,966.65
2017-12-25T04:55:44.401Z,966.56
2017-12-25T04:56:44.336Z,966.62
2017-12-25T04:57:44.270Z,966.58
2017-12-25T04:58:44.203Z,966.58
2017-12-25T04:59:44.140Z,966.59
2017-12-25T05:00:44.072Z,966.58
2017-12-25T05:01:44.006Z,966.58
2017-12-25T05:02:43.940Z,966.59
2017-12-25T05:03:43.879Z,966.57
2017-12-25T05:04:43.810Z,966.56
2017-12-25T05:05:43.742Z,966.58
2017-12-25T05:06:43.677Z,966.58
2017-12-25T05:07:43.611Z,966.52
2017-12-25T05:08:43.547Z,966.45
2017-12-25T05:09:43.480Z,966.50
2017-12-25T05:10:43.415Z,966.48
2017-12-25T05:11:43.351Z,966.47
2017-12-25T05:12:43.284Z,966.47
2017-12-25T05:13:43.217Z,966.48
2017-12-25T05:14:43.154Z,966.47
2017-12-25T05:15:43.087Z,966.44
2017-12-25T05:16:43.021Z,966.47
2017-12-25T05:17:42.955Z,966.43
2017-12-25T05:18:42.890Z,966.45
2017-12-25T05:19:42.825Z,966.50
2017-12-25T05:20:42.765Z,966.47
2017-12-25T05:21:42.699Z,966.45
2017-12-25T05:22:42.627Z,966.46
2017-12-25T05:23:42.564Z,966.40
2017-12-25T05:24:42.497Z,966.43
2017-12-25T05:25:42.447Z,966.44
2017-12-25T05:26:42.366Z,966.48
2017-12-25T05:27:42.300Z,966.45
2017-12-25T05:28:42.236Z,966.48
2017-12-25T05:29:42.172Z,966.42
2017-12-25T05:30:42.105Z,966.43
2017-12-25T05:31:42.039Z,966.42
2017-12-25T05:32:41.974Z,966.34
2017-12-25T05:33:41.908Z,966.42
2017-12-25T05:34:41.841Z,966.40
2017-12-25T05:35:41.777Z,966.36
2017-12-25T05:36:41.711Z,966.37
2017-12-25T05:37:41.647Z,966.36
2017-12-25T05:38:41.580Z,966.34
2017-12-25T05:39:41.514Z,966.34
2017-12-25T05:40:41.451Z,966.34
2017-12-25T05:41:41.384Z,966.35
2017-12-25T05:42:41.317Z,966.34
2017-12-25T05:43:41.252Z,966.34
2017-12-25T05:44:41.191Z,966.34
2017-12-25T05:45:41.124Z,966.33
2017-12-25T05:46:41.057Z,966.30
2017-12-25T05:47:40.992Z,966.29
2017-12-25T05:48:40.926Z,966.30
2017-12-25T05:49:40.859Z,966.31
2017-12-25T05:50:40.794Z,966.30
2017-12-25T05:51:40.728Z,966.25
2017-12-25T05:52:40.662Z,966.28
2017-12-25T05:53:40.596Z,966.25
2017-12-25T05:54:40.530Z,966.20
2017-12-25T05:55:40.469Z,966.20
2017-12-25T05:56:40.401Z,966.18
2017-12-25T05:57:40.336Z,966.23
2017-12-25T05:58:40.273Z,966.23
2017-12-25T05:59:40.204Z,966.25
2017-12-25T06:00:40.140Z,966.20
2017-12-25T06:01:40.075Z,966.19
2017-12-25T06:02:40.008Z,966.20
2017-12-25T06:03:39.946Z,966.18
2017-12-25T06:04:39.879Z,966.21
2017-12-25T06:05:39.813Z,966.19
2017-12-25T06:06:39.746Z,966.20
2017-12-25T06:07:39.680Z,966.20
2017-12-25T06:08:39.616Z,966.17
2017-12-25T06:09:39.548Z,966.15
2017-12-25T06:10:39.484Z,966.17
2017-12-25T06:11:39.418Z,966.14
2017-12-25T06:12:39.353Z,966.17
2017-12-25T06:13:39.287Z,966.14
2017-12-25T06:14:39.221Z,966.14
2017-12-25T06:15:39.157Z,966.15
2017-12-25T06:16:39.092Z,966.15
2017-12-25T06:17:39.028Z,966.14
2017-12-25T06:18:38.959Z,966.13
2017-12-25T06:19:38.895Z,966.11
2017-12-25T06:20:38.832Z,966.12
2017-12-25T06:21:38.769Z,966.10
2017-12-25T06:22:38.697Z,966.18
2017-12-25T06:23:38.632Z,966.17
2017-12-25T06:24:38.567Z,966.18
2017-12-25T06:25:38.501Z,966.15
2017-12-25T06:26:38.436Z,966.14
2017-12-25T06:27:38.371Z,966.12
2017-12-25T06:28:38.306Z,966.10
2017-12-25T06:29:38.238Z,966.06
2017-12-25T06:30:38.172Z,966.07
2017-12-25T06:31:38.108Z,966.07
2017-12-25T06:32:38.063Z,966.01
2017-12-25T06:33:37.976Z,966.02
2017-12-25T06:34:37.910Z,965.99
2017-12-25T06:35:37.847Z,965.96
2017-12-25T06:36:37.779Z,965.96
2017-12-25T06:37:37.713Z,965.94
2017-12-25T06:38:37.651Z,965.94
2017-12-25T06:39:37.581Z,965.95
2017-12-25T06:40:37.517Z,965.94
2017-12-25T06:41:37.453Z,965.93
2017-12-25T06:42:37.385Z,965.96
2017-12-25T06:43:37.319Z,965.90
2017-12-25T06:44:37.253Z,965.87
2017-12-25T06:45:37.188Z,965.91
2017-12-25T06:46:37.121Z,965.93
2017-12-25T06:47:37.057Z,965.88
2017-12-25T06:48:36.992Z,965.87
2017-12-25T06:49:36.924Z,965.86
2017-12-25T06:50:36.858Z,965.95
2017-12-25T06:51:36.792Z,965.85
2017-12-25T06:52:36.730Z,965.85
2017-12-25T06:53:36.664Z,965.81
2017-12-25T06:54:36.599Z,965.84
2017-12-25T06:55:36.529Z,965.81
2017-12-25T06:56:36.464Z,965.80
2017-12-25T06:57:36.399Z,965.80
2017-12-25T06:58:36.333Z,965.83
2017-12-25T06:59:36.269Z,965.84
2017-12-25T07:00:36.200Z,965.80
2017-12-25T07:01:36.139Z,965.80
2017-12-25T07:02:36.069Z,965.84
2017-12-25T07:03:36.005Z,965.83
2017-12-25T07:04:35.942Z,965.80
2017-12-25T07:05:35.875Z,965.80
2017-12-25T07:06:35.805Z,965.80
2017-12-25T07:07:35.740Z,965.78
2017-12-25T07:08:35.675Z,965.81
2017-12-25T07:09:35.609Z,965.82
2017-12-25T07:10:35.543Z,965.78
2017-12-25T07:11:35.476Z,965.82
2017-12-25T07:12:35.410Z,965.81
2017-12-25T07:13:35.345Z,965.80
2017-12-25T07:14:35.280Z,965.81
2017-12-25T07:15:35.214Z,965.82
2017-12-25T07:16:35.147Z,965.82
2017-12-25T07:17:35.082Z,965.81
2017-12-25T07:18:35.015Z,965.82
2017-12-25T07:19:34.949Z,965.82
2017-12-25T07:20:34.885Z,965.81
2017-12-25T07:21:34.817Z,965.87
2017-12-25T07:22:34.751Z,965.86
2017-12-25T07:23:34.685Z,965.86
2017-12-25T07:24:34.621Z,965.84
2017-12-25T07:25:34.555Z,965.86
2017-12-25T07:26:34.489Z,965.85
2017-12-25T07:27:34.421Z,965.82
2017-12-25T07:28:34.357Z,965.86
2017-12-25T07:29:34.289Z,965.87
2017-12-25T07:30:34.223Z,965.84
2017-12-25T07:31:34.159Z,965.80
2017-12-25T07:32:34.095Z,965.81
2017-12-25T07:33:34.027Z,965.81
2017-12-25T07:34:33.961Z,965.82
2017-12-25T07:35:33.895Z,965.81
2017-12-25T07:36:33.830Z,965.76
2017-12-25T07:37:33.765Z,965.79
2017-12-25T07:38:33.697Z,965.79
2017-12-25T07:39:33.635Z,965.79
2017-12-25T07:40:33.574Z,965.76
2017-12-25T07:41:33.500Z,965.76
2017-12-25T07:42:33.435Z,965.74
2017-12-25T07:43:33.367Z,965.74
2017-12-25T07:44:33.306Z,965.73
2017-12-25T07:45:33.240Z,965.68
2017-12-25T07:46:33.173Z,965.76
2017-12-25T07:47:33.109Z,965.70
2017-12-25T07:48:33.040Z,965.71
2017-12-25T07:49:32.974Z,965.69
2017-12-25T07:50:32.909Z,965.70
2017-12-25T07:51:32.842Z,965.70
2017-12-25T07:52:32.777Z,965.64
2017-12-25T07:53:32.711Z,965.65
2017-12-25T07:54:32.644Z,965.73
2017-12-25T07:55:32.579Z,965.68
2017-12-25T07:56:32.517Z,965.69
2017-12-25T07:57:32.446Z,965.69
2017-12-25T07:58:32.382Z,965.65
2017-12-25T07:59:32.316Z,965.68
2017-12-25T08:00:32.248Z,965.65
2017-12-25T08:01:32.199Z,965.61
2017-12-25T08:02:32.118Z,965.65
2017-12-25T08:03:32.055Z,965.64
2017-12-25T08:04:32.016Z,965.63
2017-12-25T08:05:31.920Z,965.60
2017-12-25T08:06:31.857Z,965.59
2017-12-25T08:07:31.792Z,965.57
2017-12-25T08:08:31.724Z,965.57
2017-12-25T08:09:31.660Z,965.56
2017-12-25T08:10:31.596Z,965.62
2017-12-25T08:11:31.526Z,965.58
2017-12-25T08:12:31.461Z,965.60
2017-12-25T08:13:31.397Z,965.61
2017-12-25T08:14:31.329Z,965.58
2017-12-25T08:15:31.263Z,965.56
2017-12-25T08:16:31.198Z,965.55
2017-12-25T08:17:31.151Z,965.57
2017-12-25T08:18:31.066Z,965.55
2017-12-25T08:19:31.001Z,965.57
2017-12-25T08:20:30.934Z,965.58
2017-12-25T08:21:30.870Z,965.59
2017-12-25T08:22:30.804Z,965.58
2017-12-25T08:23:30.737Z,965.59
2017-12-25T08:24:30.670Z,965.55
2017-12-25T08:25:30.606Z,965.55
2017-12-25T08:26:30.538Z,965.51
2017-12-25T08:27:30.475Z,965.54
2017-12-25T08:28:30.412Z,965.54
2017-12-25T08:29:30.342Z,965.53
2017-12-25T08:30:30.276Z,965.54
2017-12-25T08:31:30.209Z,965.54
2017-12-25T08:32:30.144Z,965.52
2017-12-25T08:33:30.094Z,965.53
2017-12-25T08:34:30.012Z,965.53
2017-12-25T08:35:29.947Z,965.53
2017-12-25T08:36:29.882Z,965.51
2017-12-25T08:37:29.817Z,965.45
2017-12-25T08:38:29.750Z,965.47
2017-12-25T08:39:29.686Z,965.45
2017-12-25T08:40:29.620Z,965.48
2017-12-25T08:41:29.554Z,965.44
2017-12-25T08:42:29.488Z,965.46
2017-12-25T08:43:29.421Z,965.44
2017-12-25T08:44:29.359Z,965.44
2017-12-25T08:45:29.293Z,965.43
2017-12-25T08:46:29.225Z,965.44
2017-12-25T08:47:29.160Z,965.42
2017-12-25T08:48:29.096Z,965.42
2017-12-25T08:49:29.031Z,965.39
2017-12-25T08:50:28.964Z,965.38
2017-12-25T08:51:28.898Z,965.36
2017-12-25T08:52:28.835Z,965.37
2017-12-25T08:53:28.767Z,965.37
2017-12-25T08:54:28.706Z,965.39
2017-12-25T08:55:28.638Z,965.40
2017-12-25T08:56:28.572Z,965.41
2017-12-25T08:57:28.508Z,965.43
2017-12-25T08:58:28.443Z,965.40
2017-12-25T08:59:28.377Z,965.37
2017-12-25T09:00:28.309Z,965.33
2017-12-25T09:01:28.244Z,965.33
2017-12-25T09:02:28.181Z,965.34
2017-12-25T09:03:28.117Z,965.30
2017-12-25T09:04:28.052Z,965.30
2017-12-25T09:05:27.985Z,965.33
2017-12-25T09:06:27.917Z,965.33
2017-12-25T09:07:27.855Z,965.33
2017-12-25T09:08:27.841Z,965.33
2017-12-25T09:09:27.725Z,965.30
2017-12-25T09:10:27.657Z,965.35
2017-12-25T09:11:27.601Z,965.33
2017-12-25T09:12:27.533Z,965.34
2017-12-25T09:13:27.465Z,965.36
2017-12-25T09:14:27.398Z,965.33
2017-12-25T09:15:27.347Z,965.34
2017-12-25T09:16:27.275Z,965.36
2017-12-25T09:17:27.202Z,965.31
2017-12-25T09:18:27.138Z,965.36
2017-12-25T09:19:27.072Z,965.33
2017-12-25T09:20:27.008Z,965.31
2017-12-25T09:21:26.942Z,965.29
2017-12-25T09:22:26.877Z,965.29
2017-12-25T09:23:26.813Z,965.26
2017-12-25T09:24:26.747Z,965.29
2017-12-25T09:25:26.689Z,965.29
2017-12-25T09:26:26.620Z,965.26
2017-12-25T09:27:26.551Z,965.25
2017-12-25T09:28:26.486Z,965.24
2017-12-25T09:29:26.419Z,965.24
2017-12-25T09:30:26.357Z,965.30
2017-12-25T09:31:26.291Z,965.28
2017-12-25T09:32:26.226Z,965.28
2017-12-25T09:33:26.160Z,965.30
2017-12-25T09:34:26.096Z,965.28
2017-12-25T09:35:26.031Z,965.32
2017-12-25T09:36:25.966Z,965.32
2017-12-25T09:37:25.898Z,965.33
2017-12-25T09:38:25.835Z,965.33
2017-12-25T09:39:25.770Z,965.31
2017-12-25T09:40:25.704Z,965.33
2017-12-25T09:41:25.638Z,965.28
2017-12-25T09:42:25.574Z,965.25
2017-12-25T09:43:25.509Z,965.26
2017-12-25T09:44:25.444Z,965.24
2017-12-25T09:45:25.377Z,965.20
2017-12-25T09:46:25.313Z,965.24
2017-12-25T09:47:25.250Z,965.28
2017-12-25T09:48:25.185Z,965.23
2017-12-25T09:49:25.117Z,965.21
2017-12-25T09:50:25.053Z,965.25
2017-12-25T09:51:24.988Z,965.16
2017-12-25T09:52:24.922Z,965.17
2017-12-25T09:53:24.858Z,965.16
2017-12-25T09:54:24.791Z,965.16
2017-12-25T09:55:24.727Z,965.17
2017-12-25T09:56:24.662Z,965.16
2017-12-25T09:57:24.599Z,965.13
2017-12-25T09:58:24.534Z,965.12
2017-12-25T09:59:24.465Z,965.11
2017-12-25T10:00:24.401Z,965.08
2017-12-25T10:01:24.342Z,965.05
2017-12-25T10:02:24.270Z,965.03
2017-12-25T10:03:24.207Z,965.00
2017-12-25T10:04:24.143Z,965.03
2017-12-25T10:05:24.080Z,965.04
2017-12-25T10:06:24.009Z,965.02
2017-12-25T10:07:23.947Z,965.02
2017-12-25T10:08:23.882Z,965.00
2017-12-25T10:09:23.814Z,965.01
2017-12-25T10:10:23.750Z,965.00
2017-12-25T10:11:23.684Z,964.94
2017-12-25T10:12:23.620Z,964.94
2017-12-25T10:13:23.552Z,964.92
2017-12-25T10:14:23.489Z,964.89
2017-12-25T10:15:23.424Z,964.93
2017-12-25T10:16:23.359Z,964.90
2017-12-25T10:17:23.294Z,964.86
2017-12-25T10:18:23.229Z,964.86
2017-12-25T10:19:23.165Z,964.83
2017-12-25T10:20:23.099Z,964.82
2017-12-25T10:21:23.034Z,964.81
2017-12-25T10:22:22.968Z,964.81
2017-12-25T10:23:22.906Z,964.79
2017-12-25T10:24:22.841Z,964.81
2017-12-25T10:25:22.774Z,964.78
2017-12-25T10:26:22.709Z,964.74
2017-12-25T10:27:22.643Z,964.77
2017-12-25T10:28:22.581Z,964.76
2017-12-25T10:29:22.514Z,964.75
2017-12-25T10:30:22.449Z,964.71
2017-12-25T10:31:22.385Z,964.72
2017-12-25T10:32:22.322Z,964.65
2017-12-25T10:33:22.256Z,964.69
2017-12-25T10:34:22.189Z,964.68
2017-12-25T10:35:22.127Z,964.63
2017-12-25T10:36:22.061Z,964.63
2017-12-25T10:37:22.000Z,964.61
2017-12-25T10:38:21.931Z,964.61
2017-12-25T10:39:21.867Z,964.58
2017-12-25T10:40:21.803Z,964.57
2017-12-25T10:41:21.735Z,964.59
2017-12-25T10:42:21.671Z,964.56
2017-12-25T10:43:21.605Z,964.55
2017-12-25T10:44:21.543Z,964.52
2017-12-25T10:45:21.484Z,964.51
2017-12-25T10:46:21.414Z,964.51
2017-12-25T10:47:21.346Z,964.47
2017-12-25T10:48:21.284Z,964.44
2017-12-25T10:49:21.216Z,964.40
2017-12-25T10:50:21.156Z,964.32
2017-12-25T10:51:21.087Z,964.32
2017-12-25T10:52:21.023Z,964.31
2017-12-25T10:53:20.957Z,964.29
2017-12-25T10:54:20.894Z,964.26
2017-12-25T10:55:20.830Z,964.26
2017-12-25T10:56:20.763Z,964.25
2017-12-25T10:57:20.698Z,964.21
2017-12-25T10:58:20.636Z,964.18
2017-12-25T10:59:20.569Z,964.14
2017-12-25T11:00:20.505Z,964.12
2017-12-25T11:01:20.440Z,964.10
2017-12-25T11:02:20.376Z,964.08
2017-12-25T11:03:20.319Z,964.07
2017-12-25T11:04:20.250Z,964.07
2017-12-25T11:05:20.184Z,964.06
2017-12-25T11:06:20.122Z,964.04
2017-12-25T11:07:20.066Z,964.03
2017-12-25T11:08:19.989Z,963.97
2017-12-25T11:09:19.924Z,963.98
2017-12-25T11:10:19.864Z,963.98
2017-12-25T11:11:19.799Z,963.99
2017-12-25T11:12:19.734Z,963.93
2017-12-25T11:13:19.667Z,963.92
2017-12-25T11:14:19.603Z,963.96
2017-12-25T11:15:19.539Z,963.95
2017-12-25T11:16:19.473Z,963.92
2017-12-25T11:17:19.410Z,963.89
2017-12-25T11:18:19.346Z,963.93
2017-12-25T11:19:19.282Z,963.88
2017-12-25T11:20:19.216Z,963.87
2017-12-25T11:21:19.151Z,963.85
2017-12-25T11:22:19.110Z,963.82
2017-12-25T11:23:19.026Z,963.84
2017-12-25T11:24:18.961Z,963.79
2017-12-25T11:25:18.896Z,963.78
2017-12-25T11:26:18.832Z,963.73
2017-12-25T11:27:18.765Z,963.71
2017-12-25T11:28:18.702Z,963.69
2017-12-25T11:29:18.636Z,963.66
2017-12-25T11:30:18.574Z,963.64
2017-12-25T11:31:18.510Z,963.65
2017-12-25T11:32:18.448Z,963.54
2017-12-25T11:33:18.382Z,963.48
2017-12-25T11:34:18.317Z,963.48
2017-12-25T11:35:18.254Z,963.49
2017-12-25T11:36:18.188Z,963.44
2017-12-25T11:37:18.126Z,963.44
2017-12-25T11:38:18.054Z,963.45
2017-12-25T11:39:18.001Z,963.49
2017-12-25T11:40:17.929Z,963.47
2017-12-25T11:41:17.869Z,963.48
2017-12-25T11:42:17.804Z,963.50
2017-12-25T11:43:17.739Z,963.43
2017-12-25T11:44:17.678Z,963.44
2017-12-25T11:45:17.607Z,963.37
2017-12-25T11:46:17.547Z,963.37
2017-12-25T11:47:17.482Z,963.34
2017-12-25T11:48:17.422Z,963.33
2017-12-25T11:49:17.358Z,963.32
2017-12-25T11:50:17.293Z,963.26
2017-12-25T11:51:17.236Z,963.26
2017-12-25T11:52:17.170Z,963.22
2017-12-25T11:53:17.101Z,963.22
2017-12-25T11:54:17.036Z,963.17
2017-12-25T11:55:16.975Z,963.19
2017-12-25T11:56:16.911Z,963.18
2017-12-25T11:57:16.847Z,963.16
2017-12-25T11:58:16.799Z,963.17
2017-12-25T11:59:16.723Z,963.19
2017-12-25T12:00:16.654Z,963.21
2017-12-25T12:01:16.588Z,963.17
2017-12-25T12:02:16.536Z,963.17
2017-12-25T12:03:16.464Z,963.16
2017-12-25T12:04:16.400Z,963.10
2017-12-25T12:05:16.334Z,963.11
2017-12-25T12:06:16.273Z,963.07
2017-12-25T12:07:16.208Z,963.04
2017-12-25T12:08:16.147Z,963.00
2017-12-25T12:09:16.114Z,962.99
2017-12-25T12:10:16.016Z,963.01
2017-12-25T12:11:15.954Z,962.95
2017-12-25T12:12:15.891Z,962.94
2017-12-25T12:13:15.829Z,962.90
2017-12-25T12:14:15.767Z,962.90
2017-12-25T12:15:15.698Z,962.84
2017-12-25T12:16:15.635Z,962.85
2017-12-25T12:17:15.572Z,962.83
2017-12-25T12:18:15.508Z,962.80
2017-12-25T12:19:15.444Z,962.76
2017-12-25T12:20:15.396Z,962.78
2017-12-25T12:21:15.316Z,962.73
2017-12-25T12:22:15.254Z,962.70
2017-12-25T12:23:15.192Z,962.71
2017-12-25T12:24:15.125Z,962.66
2017-12-25T12:25:15.062Z,962.67
2017-12-25T12:26:15.044Z,962.63
2017-12-25T12:27:14.937Z,962.61